Time;durP1;ratioP1;P1;durP2;ratioP2;P2;SDS_P1;SDS_P2;PMS_P1;PMS_P2;Temp;Humidity;BMP_temperature;BMP_pressure;BME280_temperature;BME280_humidity;BME280_pressure;Samples;Min_cycle;Max_cycle;Signal;HPM_P1;HPM_P2
2022/12/27 00:01:18;;;;;;;7.50;2.10;;;;;4.00;101775.00;;;;9803090;30;20213;-79
2022/12/27 00:06:23;;;;;;;6.53;2.20;;;;;3.90;101790.00;;;;9771382;30;20297;-79
2022/12/27 00:11:28;;;;;;;6.77;2.50;;;;;3.90;101783.00;;;;9746554;30;20673;-79
2022/12/27 00:16:31;;;;;;;6.73;2.30;;;;;3.90;101783.00;;;;9794114;30;20689;-79
2022/12/27 00:21:33;;;;;;;5.10;2.17;;;;;3.90;101786.00;;;;9777768;30;20668;-79
2022/12/27 00:26:37;;;;;;;3.97;1.73;;;;;3.80;101780.00;;;;9807724;30;20229;-79
2022/12/27 00:31:39;;;;;;;5.20;2.00;;;;;3.80;101789.00;;;;9787229;30;20255;-79
2022/12/27 00:36:41;;;;;;;6.57;2.27;;;;;3.80;101788.00;;;;9779164;30;20189;-79
2022/12/27 00:41:45;;;;;;;9.60;2.23;;;;;3.80;101779.00;;;;9793043;30;20216;-78
2022/12/27 00:46:47;;;;;;;6.97;2.40;;;;;3.80;101784.00;;;;9791602;30;20197;-79
2022/12/27 00:51:49;;;;;;;2.87;2.10;;;;;3.90;101781.00;;;;9790557;30;20221;-79
2022/12/27 00:56:52;;;;;;;5.07;1.97;;;;;3.90;101799.00;;;;9773751;30;20205;-80
2022/12/27 01:01:54;;;;;;;9.70;2.07;;;;;3.90;101807.00;;;;9763709;30;20193;-80
2022/12/27 01:06:56;;;;;;;4.50;2.23;;;;;3.90;101806.00;;;;9777590;30;20208;-79
2022/12/27 01:11:58;;;;;;;4.43;1.97;;;;;3.90;101811.00;;;;9790803;30;20217;-79
2022/12/27 01:17:00;;;;;;;8.20;1.87;;;;;3.90;101815.00;;;;9804920;30;20209;-80
2022/12/27 01:22:03;;;;;;;2.60;1.33;;;;;3.90;101822.00;;;;9790899;30;20236;-79
2022/12/27 01:27:04;;;;;;;4.20;1.57;;;;;3.90;101824.00;;;;9753940;30;20321;-79
2022/12/27 01:32:06;;;;;;;7.20;2.00;;;;;3.90;101828.00;;;;9786482;30;20673;-80
2022/12/27 01:37:08;;;;;;;5.13;2.20;;;;;3.90;101834.00;;;;9818833;30;20240;-80
2022/12/27 01:47:54;;;;;;;3.07;1.90;;;;;4.00;101847.00;;;;9804516;30;20258;-79
2022/12/27 01:53:09;;;;;;;10.60;2.40;;;;;4.10;101860.00;;;;9758405;30;20213;-79
2022/12/27 01:58:16;;;;;;;10.50;2.40;;;;;4.00;101863.00;;;;9789067;30;20215;-79
2022/12/27 02:03:41;;;;;;;3.93;1.63;;;;;3.90;101871.00;;;;9774041;30;20687;-80
2022/12/27 02:09:26;;;;;;;4.83;1.67;;;;;3.90;101871.00;;;;9774534;30;20665;-79
2022/12/27 02:14:39;;;;;;;2.77;1.40;;;;;3.90;101882.00;;;;9647253;30;20232;-79
2022/12/27 02:19:56;;;;;;;2.30;1.70;;;;;3.90;101887.00;;;;9743247;30;20221;-79
2022/12/27 02:25:24;;;;;;;2.87;2.00;;;;;3.90;101895.00;;;;9764151;30;20265;-80
2022/12/27 02:30:30;;;;;;;8.23;2.50;;;;;3.90;101890.00;;;;9782749;30;20209;-80
2022/12/27 02:35:37;;;;;;;3.47;1.53;;;;;3.80;101896.00;;;;9788812;30;20252;-79
2022/12/27 02:57:35;;;;;;;5.57;2.03;;;;;3.90;101903.00;;;;9771894;30;20237;-79
2022/12/27 03:08:27;;;;;;;8.13;2.17;;;;;3.80;101899.00;;;;9807294;30;20227;-79
2022/12/27 03:35:25;;;;;;;6.33;2.13;;;;;3.70;101927.00;;;;9785941;30;20221;-79
2022/12/27 03:43:09;;;;;;;7.10;2.07;;;;;3.60;101934.00;;;;9792904;30;20255;-79
2022/12/27 03:46:33;;;;;;;5.87;2.27;;;;;3.60;101925.00;;;;9822823;30;20192;-79
2022/12/27 03:51:57;;;;;;;4.70;2.10;;;;;3.60;101913.00;;;;9770119;30;20206;-79
2022/12/27 03:57:08;;;;;;;7.90;2.20;;;;;3.60;101923.00;;;;9755356;30;20217;-79
2022/12/27 04:02:10;;;;;;;9.43;2.00;;;;;3.60;101933.00;;;;9762379;30;20297;-78
2022/12/27 04:07:13;;;;;;;8.67;1.90;;;;;3.60;101927.00;;;;9756257;30;20210;-79
2022/12/27 04:38:58;;;;;;;4.10;2.10;;;;;3.70;101948.00;;;;9790640;30;20670;-79
2022/12/27 04:54:56;;;;;;;5.00;1.90;;;;;3.60;101938.00;;;;9805207;30;20259;-79
2022/12/27 05:05:19;;;;;;;9.77;2.50;;;;;3.60;101938.00;;;;9805047;30;20202;-78
2022/12/27 05:15:42;;;;;;;2.23;1.90;;;;;3.50;101941.00;;;;9768704;30;20221;-79
2022/12/27 05:20:44;;;;;;;6.13;2.27;;;;;3.50;101947.00;;;;9771034;30;20204;-79
2022/12/27 05:25:46;;;;;;;3.90;1.80;;;;;3.50;101930.00;;;;9775278;30;20335;-79
2022/12/27 05:30:48;;;;;;;3.40;2.17;;;;;3.70;101943.00;;;;9802934;30;20276;-79
2022/12/27 05:35:50;;;;;;;5.07;2.03;;;;;3.80;101943.00;;;;9775090;30;20217;-79
2022/12/27 05:40:57;;;;;;;4.03;2.30;;;;;3.80;101933.00;;;;9783353;30;20206;-79
2022/12/27 05:46:20;;;;;;;4.20;1.93;;;;;3.70;101945.00;;;;9796257;30;20212;-78
2022/12/27 05:51:22;;;;;;;6.27;2.10;;;;;3.70;101952.00;;;;9773939;30;20213;-79
2022/12/27 05:56:24;;;;;;;8.20;2.20;;;;;3.70;101950.00;;;;9788325;30;20218;-79
2022/12/27 06:01:26;;;;;;;3.90;2.13;;;;;3.80;101947.00;;;;9788852;30;20208;-79
2022/12/27 06:06:27;;;;;;;5.90;2.57;;;;;3.80;101955.00;;;;9789337;30;20796;-79
2022/12/27 06:11:29;;;;;;;7.83;2.50;;;;;3.80;101943.00;;;;9802933;30;20676;-79
2022/12/27 06:16:31;;;;;;;3.23;1.83;;;;;3.90;101936.00;;;;9776632;30;20656;-79
2022/12/27 06:21:33;;;;;;;4.17;2.10;;;;;3.90;101936.00;;;;9795265;30;20220;-79
2022/12/27 06:26:35;;;;;;;7.63;2.40;;;;;3.80;101943.00;;;;9781496;30;20290;-79
2022/12/27 06:31:37;;;;;;;11.13;2.67;;;;;3.80;101957.00;;;;9793869;30;20201;-78
2022/12/27 06:36:40;;;;;;;4.27;2.00;;;;;3.80;101953.00;;;;9796471;30;20225;-79
2022/12/27 06:41:42;;;;;;;4.27;1.97;;;;;3.80;101963.00;;;;9782667;30;20309;-79
2022/12/27 06:46:47;;;;;;;5.30;2.30;;;;;3.80;101968.00;;;;9813988;30;20280;-79
2022/12/27 06:51:49;;;;;;;3.13;2.10;;;;;3.80;101955.00;;;;9794987;30;20212;-79
2022/12/27 06:57:00;;;;;;;10.27;2.37;;;;;3.90;101972.00;;;;9790950;30;20248;-79
2022/12/27 07:02:02;;;;;;;4.13;1.93;;;;;3.80;101963.00;;;;9796189;30;20209;-79
2022/12/27 07:07:04;;;;;;;5.30;2.37;;;;;3.90;101967.00;;;;9780524;30;20205;-79
2022/12/27 07:12:09;;;;;;;6.07;2.43;;;;;3.90;101976.00;;;;9787319;30;20340;-78
2022/12/27 07:17:11;;;;;;;5.23;2.13;;;;;4.10;101985.00;;;;9775325;30;20217;-79
2022/12/27 07:22:12;;;;;;;2.77;1.80;;;;;4.10;101983.00;;;;9768640;30;20304;-78
2022/12/27 07:27:14;;;;;;;5.03;2.20;;;;;4.20;101994.00;;;;9766427;30;20327;-78
2022/12/27 07:32:16;;;;;;;8.40;2.00;;;;;4.20;102002.00;;;;9793995;30;20806;-79
2022/12/27 07:37:19;;;;;;;11.50;2.60;;;;;4.20;102009.00;;;;9815323;30;20213;-79
2022/12/27 07:42:21;;;;;;;5.87;2.10;;;;;4.30;102009.00;;;;9776794;30;20198;-79
2022/12/27 07:47:23;;;;;;;6.87;1.90;;;;;4.30;102000.00;;;;9785134;30;20549;-79
2022/12/27 07:52:25;;;;;;;5.37;2.23;;;;;4.30;102010.00;;;;9792281;30;20213;-79
2022/12/27 07:57:28;;;;;;;5.60;2.30;;;;;4.30;102011.00;;;;9798205;30;20244;-78
2022/12/27 08:02:30;;;;;;;4.87;2.00;;;;;4.30;102011.00;;;;9776219;30;20193;-78
2022/12/27 08:07:32;;;;;;;6.87;2.17;;;;;4.30;102010.00;;;;9778055;30;20205;-78
2022/12/27 08:12:34;;;;;;;5.90;2.20;;;;;4.30;102008.00;;;;9803714;30;20572;-79
2022/12/27 08:17:36;;;;;;;5.07;2.50;;;;;4.30;102009.00;;;;9806912;30;20205;-78
2022/12/27 08:22:37;;;;;;;4.13;2.37;;;;;4.50;102016.00;;;;9778426;30;20271;-79
2022/12/27 08:27:39;;;;;;;5.53;2.50;;;;;4.70;102012.00;;;;9800798;30;20723;-79
2022/12/27 08:32:41;;;;;;;5.33;1.97;;;;;4.90;102017.00;;;;9792064;30;20217;-78
2022/12/27 08:37:43;;;;;;;14.20;2.67;;;;;5.10;102010.00;;;;9803892;30;20208;-78
2022/12/27 08:42:45;;;;;;;4.60;2.27;;;;;5.50;102011.00;;;;9764665;30;20205;-79
2022/12/27 08:47:47;;;;;;;7.00;2.43;;;;;5.60;102014.00;;;;9775628;30;20197;-79
2022/12/27 08:52:49;;;;;;;8.50;2.73;;;;;5.60;102014.00;;;;9775077;30;20201;-79
2022/12/27 08:58:00;;;;;;;9.07;2.27;;;;;5.70;102003.00;;;;9818800;30;20280;-79
2022/12/27 09:03:02;;;;;;;6.73;2.40;;;;;5.90;102013.00;;;;9789352;30;20251;-79
2022/12/27 09:08:04;;;;;;;4.03;2.00;;;;;5.90;102014.00;;;;9789932;30;20284;-79
2022/12/27 09:13:06;;;;;;;4.77;1.97;;;;;5.90;102008.00;;;;9763628;30;20221;-79
2022/12/27 09:18:10;;;;;;;4.23;1.93;;;;;6.10;102017.00;;;;9802535;30;20208;-79
2022/12/27 09:23:13;;;;;;;5.23;2.40;;;;;6.20;102019.00;;;;9774581;30;21633;-78
2022/12/27 09:28:15;;;;;;;6.37;2.33;;;;;6.60;102011.00;;;;9773240;30;20210;-79
2022/12/27 09:33:17;;;;;;;4.70;1.90;;;;;6.80;102015.00;;;;9753179;30;20315;-79
2022/12/27 09:38:19;;;;;;;7.50;2.20;;;;;7.10;102009.00;;;;9771753;30;20205;-79
2022/12/27 09:43:41;;;;;;;5.37;1.87;;;;;7.20;102003.00;;;;9761147;30;20670;-79
2022/12/27 09:48:44;;;;;;;7.23;1.80;;;;;7.20;102013.00;;;;9772711;30;20546;-79
2022/12/27 09:53:56;;;;;;;6.23;2.83;;;;;7.60;102007.00;;;;9781393;30;20217;-79
2022/12/27 09:59:08;;;;;;;6.40;1.93;;;;;8.00;102010.00;;;;9797972;30;20213;-79
2022/12/27 10:04:16;;;;;;;4.57;2.10;;;;;8.20;102011.00;;;;9788330;30;20212;-79
2022/12/27 10:09:30;;;;;;;4.50;2.53;;;;;8.30;102006.00;;;;9788681;30;20296;-79
2022/12/27 10:15:06;;;;;;;4.80;1.97;;;;;8.60;102017.00;;;;9772963;30;20255;-81
2022/12/27 10:20:43;;;;;;;5.47;1.70;;;;;8.80;102012.00;;;;9798162;30;20677;-79
2022/12/27 10:25:46;;;;;;;7.10;1.93;;;;;9.00;102021.00;;;;9796845;30;20271;-79
2022/12/27 10:30:48;;;;;;;12.97;4.23;;;;;8.50;102014.00;;;;9787892;30;20224;-79
2022/12/27 10:35:50;;;;;;;4.00;1.73;;;;;8.40;102012.00;;;;9788029;30;20225;-79
2022/12/27 10:41:13;;;;;;;8.53;2.37;;;;;8.20;102015.00;;;;9794207;30;20955;-79
2022/12/27 10:46:22;;;;;;;5.50;1.97;;;;;9.20;102001.00;;;;9775617;30;20210;-79
2022/12/27 10:51:38;;;;;;;7.50;2.00;;;;;9.30;102007.00;;;;9790008;30;20218;-79
2022/12/27 10:56:43;;;;;;;9.83;2.03;;;;;8.90;102009.00;;;;9756704;30;20206;-79
2022/12/27 11:01:48;;;;;;;4.33;1.93;;;;;8.60;102009.00;;;;9760681;30;20279;-80
2022/12/27 11:07:12;;;;;;;5.33;2.00;;;;;8.70;102004.00;;;;9770771;30;20293;-79
2022/12/27 11:12:20;;;;;;;3.07;1.60;;;;;9.10;102008.00;;;;9767232;30;20208;-80
2022/12/27 11:17:44;;;;;;;6.23;1.40;;;;;9.80;101998.00;;;;9778981;30;20245;-79
2022/12/27 11:22:52;;;;;;;5.17;1.90;;;;;10.10;102007.00;;;;9765549;30;20243;-79
2022/12/27 11:28:00;;;;;;;6.20;2.00;;;;;10.10;102007.00;;;;9786795;30;20237;-80
2022/12/27 11:33:25;;;;;;;6.53;2.27;;;;;9.90;101996.00;;;;9793444;30;20672;-79
2022/12/27 11:38:29;;;;;;;7.23;2.17;;;;;9.90;101998.00;;;;9765896;30;20650;-79
2022/12/27 11:43:39;;;;;;;5.70;3.00;;;;;10.10;101984.00;;;;9767741;30;20213;-80
2022/12/27 11:48:45;;;;;;;7.93;2.27;;;;;10.10;101989.00;;;;9791404;30;20229;-79
2022/12/27 11:54:02;;;;;;;9.30;2.43;;;;;9.90;101980.00;;;;9766566;30;20813;-79
2022/12/27 11:59:24;;;;;;;5.57;2.20;;;;;9.70;101982.00;;;;9790452;30;20661;-79
2022/12/27 12:04:44;;;;;;;8.13;2.30;;;;;9.60;101972.00;;;;9791812;30;20292;-80
2022/12/27 12:10:16;;;;;;;6.37;2.20;;;;;9.50;101962.00;;;;9784789;30;20244;-79
2022/12/27 12:15:46;;;;;;;10.07;2.30;;;;;9.50;101959.00;;;;9785283;30;20267;-81
2022/12/27 12:21:22;;;;;;;5.37;2.87;;;;;9.60;101946.00;;;;9786038;30;20197;-79
2022/12/27 12:26:27;;;;;;;6.33;1.93;;;;;9.50;101940.00;;;;9789117;30;20233;-79
2022/12/27 12:31:48;;;;;;;7.07;2.23;;;;;9.20;101936.00;;;;9784759;30;20201;-79
2022/12/27 12:36:57;;;;;;;5.57;2.23;;;;;9.00;101929.00;;;;9798390;30;20213;-79
2022/12/27 12:42:05;;;;;;;5.27;1.87;;;;;9.00;101926.00;;;;9787013;30;20295;-79
2022/12/27 12:47:31;;;;;;;3.77;1.73;;;;;9.00;101914.00;;;;9802313;30;20228;-79
2022/12/27 12:53:00;;;;;;;9.10;2.57;;;;;9.00;101913.00;;;;9810347;30;20771;-79
2022/12/27 12:58:11;;;;;;;8.70;1.93;;;;;8.90;101897.00;;;;9767222;30;20240;-80
2022/12/27 13:03:51;;;;;;;2.73;1.70;;;;;8.90;101896.00;;;;9803947;30;20213;-80
2022/12/27 13:09:27;;;;;;;4.77;1.90;;;;;8.90;101891.00;;;;9805226;30;20255;-79
2022/12/27 13:15:00;;;;;;;6.57;2.30;;;;;9.00;101882.00;;;;9785138;30;20228;-79
2022/12/27 13:20:06;;;;;;;4.23;2.20;;;;;9.00;101863.00;;;;9780824;30;20204;-80
2022/12/27 13:25:39;;;;;;;5.93;2.23;;;;;9.00;101858.00;;;;9780052;30;20232;-79
2022/12/27 13:31:28;;;;;;;2.80;1.73;;;;;9.00;101842.00;;;;9784523;30;20237;-80
2022/12/27 13:36:59;;;;;;;3.33;1.50;;;;;9.10;101832.00;;;;9767600;30;20217;-79
2022/12/27 13:42:21;;;;;;;7.80;2.20;;;;;9.10;101829.00;;;;9775051;30;20200;-80
2022/12/27 13:47:32;;;;;;;4.67;2.07;;;;;9.20;101822.00;;;;9768146;30;20300;-80
2022/12/27 13:52:53;;;;;;;4.13;2.07;;;;;9.20;101826.00;;;;9782589;30;20201;-79
2022/12/27 13:58:37;;;;;;;4.13;2.10;;;;;9.20;101816.00;;;;9786108;30;20220;-79
2022/12/27 14:04:04;;;;;;;6.90;1.97;;;;;9.30;101797.00;;;;9780847;30;20197;-79
2022/12/27 14:09:28;;;;;;;6.50;1.77;;;;;9.30;101808.00;;;;9777041;30;20676;-79
2022/12/27 14:14:33;;;;;;;4.60;1.77;;;;;9.00;101805.00;;;;9799190;30;20699;-79
2022/12/27 14:19:48;;;;;;;9.50;2.00;;;;;8.70;101797.00;;;;9806201;30;20197;-79
2022/12/27 14:24:59;;;;;;;7.90;2.40;;;;;8.40;101790.00;;;;9781422;30;20233;-79
2022/12/27 14:30:22;;;;;;;7.23;2.37;;;;;8.30;101789.00;;;;9803654;30;20204;-80
2022/12/27 14:35:48;;;;;;;4.93;1.70;;;;;8.30;101793.00;;;;9786642;30;20299;-80
2022/12/27 14:41:22;;;;;;;6.43;2.07;;;;;8.30;101784.00;;;;9794940;30;20197;-79
2022/12/27 14:46:41;;;;;;;4.73;1.63;;;;;8.20;101794.00;;;;9810125;30;20237;-80
2022/12/27 14:52:07;;;;;;;6.40;1.93;;;;;8.20;101786.00;;;;9801006;30;20291;-79
2022/12/27 14:57:21;;;;;;;4.50;1.80;;;;;8.00;101766.00;;;;9795738;30;20290;-79
2022/12/27 15:02:39;;;;;;;5.00;1.50;;;;;7.90;101761.00;;;;9800048;30;20236;-79
2022/12/27 15:08:04;;;;;;;8.73;1.37;;;;;7.70;101757.00;;;;9778190;30;20612;-79
2022/12/27 15:13:21;;;;;;;3.93;1.73;;;;;7.50;101763.00;;;;9774740;30;20206;-79
2022/12/27 15:18:52;;;;;;;8.57;1.80;;;;;7.30;101748.00;;;;9808962;30;20223;-80
2022/12/27 15:23:54;;;;;;;4.00;1.53;;;;;7.20;101745.00;;;;9794264;30;20239;-80
2022/12/27 15:29:20;;;;;;;7.10;1.90;;;;;7.10;101745.00;;;;9783280;30;20206;-79
2022/12/27 15:34:46;;;;;;;7.97;2.50;;;;;7.00;101748.00;;;;9768742;30;20220;-80
2022/12/27 15:39:49;;;;;;;2.03;1.60;;;;;6.90;101759.00;;;;9772373;30;20375;-79
2022/12/27 15:45:19;;;;;;;7.80;1.67;;;;;6.80;101776.00;;;;9803020;30;20208;-80
2022/12/27 15:50:37;;;;;;;2.20;1.60;;;;;6.70;101754.00;;;;9806218;30;20207;-79
2022/12/27 15:56:03;;;;;;;5.20;2.17;;;;;6.70;101749.00;;;;9788338;30;20307;-80
2022/12/27 16:01:14;;;;;;;7.37;2.20;;;;;6.60;101754.00;;;;9792837;30;20201;-79
2022/12/27 16:06:33;;;;;;;6.23;1.83;;;;;6.50;101750.00;;;;9792181;30;20211;-79
2022/12/27 16:11:59;;;;;;;5.50;1.83;;;;;6.50;101725.00;;;;9793195;30;20201;-79
2022/12/27 16:17:23;;;;;;;2.97;1.90;;;;;6.50;101743.00;;;;9756649;30;20218;-79
2022/12/27 16:22:35;;;;;;;4.97;2.13;;;;;6.50;101723.00;;;;9756387;30;20205;-79
2022/12/27 16:27:37;;;;;;;4.10;2.10;;;;;6.40;101736.00;;;;9783017;30;20279;-79
2022/12/27 16:32:47;;;;;;;7.60;2.13;;;;;6.30;101725.00;;;;9777133;30;20217;-79
2022/12/27 16:37:52;;;;;;;9.63;2.17;;;;;6.30;101728.00;;;;9756930;30;20244;-79
2022/12/27 16:43:17;;;;;;;5.33;2.40;;;;;6.30;101731.00;;;;9804318;30;20605;-79
2022/12/27 16:48:40;;;;;;;5.90;2.10;;;;;6.30;101723.00;;;;9772087;30;20209;-80
2022/12/27 16:54:10;;;;;;;4.67;2.20;;;;;6.20;101738.00;;;;9787230;30;20231;-79
2022/12/27 17:00:04;;;;;;;7.27;2.17;;;;;6.10;101743.00;;;;9792431;30;20288;-79
2022/12/27 17:05:15;;;;;;;5.33;2.50;;;;;6.10;101738.00;;;;9760399;30;20213;-80
2022/12/27 17:10:26;;;;;;;9.43;2.80;;;;;6.00;101741.00;;;;9788586;30;20205;-79
2022/12/27 17:15:29;;;;;;;8.27;2.83;;;;;6.00;101731.00;;;;9764718;30;20217;-79
2022/12/27 17:20:32;;;;;;;7.73;2.97;;;;;5.90;101721.00;;;;9761522;30;20284;-78
2022/12/27 17:25:43;;;;;;;8.87;2.27;;;;;5.80;101710.00;;;;9759235;30;20324;-79
2022/12/27 17:30:59;;;;;;;7.63;2.63;;;;;5.80;101705.00;;;;9788223;30;20228;-78
2022/12/27 17:36:14;;;;;;;7.73;4.00;;;;;5.70;101703.00;;;;9772779;30;20309;-79
2022/12/27 17:47:28;;;;;;;8.93;3.60;;;;;5.70;101696.00;;;;9802552;30;20204;-80
2022/12/27 17:57:54;;;;;;;8.50;3.30;;;;;5.60;101675.00;;;;9785765;30;20213;-79
2022/12/27 18:02:59;;;;;;;8.00;3.43;;;;;5.60;101667.00;;;;9763763;30;20217;-80
2022/12/27 18:08:05;;;;;;;10.60;2.37;;;;;5.50;101667.00;;;;9780471;30;20197;-78
2022/12/27 18:13:16;;;;;;;6.73;2.80;;;;;5.60;101670.00;;;;9791123;30;20668;-79
2022/12/27 18:18:29;;;;;;;5.73;2.50;;;;;5.50;101666.00;;;;9770497;30;20865;-79
2022/12/27 18:23:41;;;;;;;6.67;2.70;;;;;5.40;101663.00;;;;9795662;30;20286;-79
2022/12/27 18:28:43;;;;;;;8.60;2.57;;;;;5.30;101650.00;;;;9774521;30;20236;-79
2022/12/27 18:33:50;;;;;;;7.10;2.80;;;;;5.40;101648.00;;;;9753405;30;20225;-79
2022/12/27 18:38:59;;;;;;;5.03;2.40;;;;;5.40;101641.00;;;;9799367;30;20759;-78
2022/12/27 18:44:01;;;;;;;5.20;2.00;;;;;5.40;101632.00;;;;9779207;30;20284;-79
2022/12/27 18:49:03;;;;;;;4.57;2.20;;;;;5.40;101635.00;;;;9793844;30;20186;-80
2022/12/27 18:54:41;;;;;;;5.50;2.17;;;;;5.40;101622.00;;;;9778763;30;20207;-80
2022/12/27 18:59:42;;;;;;;6.47;2.03;;;;;5.40;101621.00;;;;9728471;30;20243;-79
2022/12/27 19:05:21;;;;;;;10.13;2.67;;;;;5.30;101601.00;;;;9779855;30;20244;-79
2022/12/27 19:10:26;;;;;;;9.07;2.87;;;;;5.30;101594.00;;;;9777078;30;20203;-79
2022/12/27 19:15:42;;;;;;;7.63;2.83;;;;;5.30;101587.00;;;;9801852;30;20217;-79
2022/12/27 19:20:52;;;;;;;5.90;2.50;;;;;5.30;101566.00;;;;9771906;30;20209;-80
2022/12/27 19:26:28;;;;;;;13.23;3.50;;;;;5.20;101566.00;;;;9777621;29;20233;-79
2022/12/27 19:31:31;;;;;;;3.47;2.30;;;;;5.20;101562.00;;;;9766381;30;20267;-80
2022/12/27 19:36:37;;;;;;;5.40;2.10;;;;;5.20;101562.00;;;;9778914;30;20213;-80
2022/12/27 19:41:42;;;;;;;5.83;2.47;;;;;5.20;101551.00;;;;9772242;30;20209;-79
2022/12/27 19:46:44;;;;;;;7.63;2.70;;;;;5.30;101546.00;;;;9786317;30;20215;-79
2022/12/27 19:51:46;;;;;;;6.00;2.47;;;;;5.40;101544.00;;;;9792939;30;20205;-79
2022/12/27 19:56:48;;;;;;;5.73;2.80;;;;;5.40;101530.00;;;;9757193;30;20243;-79
2022/12/27 20:01:50;;;;;;;3.53;2.37;;;;;5.50;101521.00;;;;9790837;30;20270;-78
2022/12/27 20:06:53;;;;;;;8.97;3.10;;;;;5.50;101522.00;;;;9767413;30;20857;-79
2022/12/27 20:11:55;;;;;;;8.83;2.97;;;;;5.50;101516.00;;;;9769335;30;20210;-79
2022/12/27 20:16:57;;;;;;;6.87;3.03;;;;;5.50;101516.00;;;;9783776;30;20979;-79
2022/12/27 20:21:59;;;;;;;6.37;3.33;;;;;5.40;101506.00;;;;9766866;30;20212;-79
2022/12/27 20:27:01;;;;;;;9.17;3.17;;;;;5.50;101494.00;;;;9796156;30;20777;-80
2022/12/27 20:32:03;;;;;;;5.27;3.07;;;;;5.60;101494.00;;;;9770164;30;20244;-79
2022/12/27 20:37:05;;;;;;;6.27;3.07;;;;;5.60;101477.00;;;;9789489;30;20224;-80
2022/12/27 20:42:07;;;;;;;8.00;2.67;;;;;5.70;101471.00;;;;9771634;30;20320;-79
2022/12/27 20:47:09;;;;;;;8.63;2.63;;;;;5.70;101468.00;;;;9786353;30;20220;-79
2022/12/27 20:52:11;;;;;;;10.23;3.07;;;;;5.90;101465.00;;;;9776104;30;20721;-79
2022/12/27 20:57:13;;;;;;;5.90;2.80;;;;;6.00;101445.00;;;;9803950;30;20217;-79
2022/12/27 21:02:15;;;;;;;4.90;2.53;;;;;6.00;101430.00;;;;9776613;30;20208;-79
2022/12/27 21:07:17;;;;;;;2.97;2.00;;;;;6.10;101426.00;;;;9760470;30;20699;-79
2022/12/27 21:12:19;;;;;;;3.70;2.30;;;;;6.20;101412.00;;;;9771807;30;20220;-79
2022/12/27 21:17:21;;;;;;;4.53;2.03;;;;;6.20;101407.00;;;;9778645;30;20802;-79
2022/12/27 21:22:23;;;;;;;3.80;1.47;;;;;6.30;101399.00;;;;9774434;30;20292;-79
2022/12/27 21:27:26;;;;;;;5.97;2.70;;;;;6.30;101401.00;;;;9790273;30;20298;-79
2022/12/27 21:32:28;;;;;;;8.10;2.53;;;;;6.30;101395.00;;;;9766091;30;20209;-79
2022/12/27 21:37:30;;;;;;;5.00;2.10;;;;;6.40;101377.00;;;;9776268;30;20216;-80
2022/12/27 21:42:32;;;;;;;3.47;2.10;;;;;6.30;101386.00;;;;9805282;30;20531;-79
2022/12/27 21:47:34;;;;;;;5.60;2.33;;;;;6.40;101381.00;;;;9768127;30;20216;-79
2022/12/27 21:52:36;;;;;;;5.27;2.20;;;;;6.40;101364.00;;;;9758641;30;20662;-79
2022/12/27 21:57:38;;;;;;;8.83;3.17;;;;;6.60;101370.00;;;;9768860;30;20227;-79
2022/12/27 22:02:40;;;;;;;4.53;2.00;;;;;6.70;101357.00;;;;9775110;30;20206;-79
2022/12/27 22:07:42;;;;;;;6.30;1.90;;;;;6.70;101352.00;;;;9778749;30;20297;-80
2022/12/27 22:12:44;;;;;;;2.87;2.37;;;;;6.80;101347.00;;;;9770502;30;20297;-79
2022/12/27 22:17:47;;;;;;;9.03;3.70;;;;;6.70;101334.00;;;;9782517;30;20929;-79
2022/12/27 22:22:49;;;;;;;3.93;2.40;;;;;6.70;101339.00;;;;9772114;30;20216;-78
2022/12/27 22:27:52;;;;;;;5.57;2.50;;;;;6.70;101318.00;;;;9769091;30;20233;-78
2022/12/27 22:32:54;;;;;;;4.83;2.73;;;;;6.60;101289.00;;;;9784172;30;20259;-78
2022/12/27 22:37:56;;;;;;;4.50;2.93;;;;;6.50;101267.00;;;;9763913;30;20308;-79
2022/12/27 22:42:58;;;;;;;5.13;2.80;;;;;6.50;101272.00;;;;9769404;30;20209;-78
2022/12/27 22:48:00;;;;;;;8.13;2.93;;;;;6.50;101263.00;;;;9791210;30;20208;-78
2022/12/27 22:53:02;;;;;;;3.50;2.40;;;;;6.50;101261.00;;;;9795973;30;20229;-78
2022/12/27 22:58:04;;;;;;;7.63;2.80;;;;;6.50;101260.00;;;;9771244;30;20798;-77
2022/12/27 23:03:06;;;;;;;5.07;2.60;;;;;6.60;101248.00;;;;9780769;30;20212;-78
2022/12/27 23:08:08;;;;;;;5.80;2.53;;;;;6.70;101233.00;;;;9781590;30;20212;-78
2022/12/27 23:13:10;;;;;;;7.47;3.33;;;;;6.70;101229.00;;;;9774542;30;20208;-78
2022/12/27 23:18:12;;;;;;;5.73;3.30;;;;;6.80;101230.00;;;;9794901;30;20311;-78
2022/12/27 23:23:14;;;;;;;3.10;2.30;;;;;6.80;101210.00;;;;9779910;30;20201;-78
2022/12/27 23:28:16;;;;;;;6.47;3.07;;;;;6.80;101209.00;;;;9779077;30;20213;-78
2022/12/27 23:33:18;;;;;;;3.83;2.97;;;;;6.80;101217.00;;;;9808025;30;20201;-78
2022/12/27 23:38:20;;;;;;;4.27;2.87;;;;;6.80;101200.00;;;;9794331;30;20209;-78
2022/12/27 23:43:22;;;;;;;5.03;3.63;;;;;6.80;101188.00;;;;9756663;30;20210;-78
2022/12/27 23:48:44;;;;;;;5.57;3.27;;;;;6.80;101169.00;;;;9774175;30;20197;-78
2022/12/27 23:53:46;;;;;;;6.20;3.07;;;;;6.90;101160.00;;;;9779169;30;20590;-79
2022/12/27 23:58:51;;;;;;;8.00;3.20;;;;;7.00;101159.00;;;;9781070;30;20236;-79
